createdAt,value
2023-05-05T00:00:09.926Z,10.44
2023-05-05T00:03:23.045Z,10.39
2023-05-05T00:06:00.509Z,10.40
2023-05-05T00:08:38.058Z,10.44
2023-05-05T00:11:15.241Z,10.45
2023-05-05T00:13:52.219Z,10.47
2023-05-05T00:16:25.759Z,10.48
2023-05-05T00:18:59.676Z,10.47
2023-05-05T00:21:33.900Z,10.45
2023-05-05T00:24:12.797Z,10.43
2023-05-05T00:26:50.268Z,10.41
2023-05-05T00:29:28.150Z,10.38
2023-05-05T00:32:07.859Z,10.37
2023-05-05T00:34:45.127Z,10.34
2023-05-05T00:37:17.622Z,10.31
2023-05-05T00:39:55.270Z,10.28
2023-05-05T00:42:46.136Z,10.30
2023-05-05T00:45:23.557Z,10.30
2023-05-05T00:48:05.172Z,10.29
2023-05-05T00:50:45.341Z,10.30
2023-05-05T00:53:23.029Z,10.30
2023-05-05T00:56:00.349Z,10.30
2023-05-05T00:58:38.266Z,10.29
2023-05-05T01:01:16.872Z,10.29
2023-05-05T01:03:54.130Z,10.30
2023-05-05T01:07:40.700Z,10.28
2023-05-05T01:10:26.423Z,10.22
2023-05-05T01:13:24.925Z,10.19
2023-05-05T01:16:26.954Z,10.15
2023-05-05T01:19:46.158Z,10.13
2023-05-05T01:22:25.107Z,10.12
2023-05-05T01:25:40.104Z,10.11
2023-05-05T01:28:55.751Z,10.14
2023-05-05T01:31:55.561Z,10.10
2023-05-05T01:34:46.883Z,10.13
2023-05-05T01:37:42.604Z,10.12
2023-05-05T01:40:23.445Z,10.13
2023-05-05T01:43:01.490Z,10.13
2023-05-05T01:45:41.793Z,10.14
2023-05-05T01:48:19.552Z,10.11
2023-05-05T01:50:56.378Z,10.08
2023-05-05T01:53:36.247Z,10.06
2023-05-05T01:56:15.673Z,10.08
2023-05-05T01:58:54.631Z,10.05
2023-05-05T02:01:33.363Z,10.04
2023-05-05T02:04:13.951Z,10.09
2023-05-05T02:06:53.510Z,10.13
2023-05-05T02:09:38.003Z,10.11
2023-05-05T02:12:16.809Z,10.12
2023-05-05T02:14:55.342Z,10.09
2023-05-05T02:17:33.260Z,10.02
2023-05-05T02:20:14.369Z,9.97
2023-05-05T02:22:50.282Z,9.93
2023-05-05T02:25:34.336Z,9.93
2023-05-05T02:28:23.184Z,9.94
2023-05-05T02:31:01.276Z,9.94
2023-05-05T02:33:39.727Z,9.94
2023-05-05T02:36:21.611Z,9.94
2023-05-05T02:39:06.778Z,9.98
2023-05-05T02:41:44.650Z,10.06
2023-05-05T02:44:20.220Z,10.07
2023-05-05T02:46:59.166Z,10.13
2023-05-05T02:49:38.785Z,10.16
2023-05-05T02:52:16.393Z,10.19
2023-05-05T02:54:58.956Z,10.21
2023-05-05T02:58:12.123Z,10.25
2023-05-05T03:01:09.741Z,10.28
2023-05-05T03:04:17.373Z,10.31
2023-05-05T03:07:05.968Z,10.34
2023-05-05T03:10:22.870Z,10.36
2023-05-05T03:13:08.364Z,10.40
2023-05-05T03:15:53.340Z,10.45
2023-05-05T03:18:32.080Z,10.52
2023-05-05T03:21:11.278Z,10.58
2023-05-05T03:23:43.808Z,10.66
2023-05-05T03:26:19.598Z,10.72
2023-05-05T03:28:57.700Z,10.77
2023-05-05T03:31:35.046Z,10.78
2023-05-05T03:34:12.943Z,10.72
2023-05-05T03:36:50.069Z,10.67
2023-05-05T03:39:28.026Z,10.70
2023-05-05T03:42:06.989Z,10.76
2023-05-05T03:44:43.935Z,10.79
2023-05-05T03:47:21.454Z,10.77
2023-05-05T03:49:58.841Z,10.72
2023-05-05T03:52:36.121Z,10.75
2023-05-05T03:55:14.288Z,10.80
2023-05-05T03:57:50.101Z,10.83
2023-05-05T04:00:22.176Z,10.86
2023-05-05T04:03:00.798Z,10.94
2023-05-05T04:05:31.515Z,11.02
2023-05-05T04:08:10.594Z,11.04
2023-05-05T04:10:47.291Z,11.06
2023-05-05T04:13:24.207Z,11.10
2023-05-05T04:16:01.599Z,11.18
2023-05-05T04:18:39.167Z,11.21
2023-05-05T04:21:15.853Z,11.18
2023-05-05T04:23:53.245Z,11.15
2023-05-05T04:26:24.045Z,11.04
2023-05-05T04:29:03.739Z,10.98
2023-05-05T04:31:41.683Z,10.97
2023-05-05T04:34:19.136Z,11.08
2023-05-05T04:36:56.076Z,11.15
2023-05-05T04:39:26.691Z,11.02
2023-05-05T04:42:04.642Z,10.95
2023-05-05T04:44:41.623Z,11.05
2023-05-05T04:47:18.803Z,11.12
2023-05-05T04:49:57.985Z,11.13
2023-05-05T04:52:34.383Z,11.14
2023-05-05T04:55:06.703Z,11.25
2023-05-05T04:57:42.581Z,11.41
2023-05-05T05:00:20.588Z,11.50
2023-05-05T05:02:59.100Z,11.57
2023-05-05T05:05:37.380Z,11.63
2023-05-05T05:08:17.345Z,11.85
2023-05-05T05:10:54.259Z,12.17
2023-05-05T05:13:30.844Z,12.38
2023-05-05T05:16:09.042Z,12.58
2023-05-05T05:18:45.862Z,12.72
2023-05-05T05:21:24.046Z,13.19
2023-05-05T05:24:01.541Z,13.77
2023-05-05T05:26:38.723Z,14.30
2023-05-05T05:29:15.482Z,14.44
2023-05-05T05:31:47.569Z,14.45
2023-05-05T05:34:23.370Z,14.46
2023-05-05T05:37:01.019Z,14.45
2023-05-05T05:39:37.993Z,14.31
2023-05-05T05:42:15.151Z,13.93
2023-05-05T05:44:51.995Z,13.81
2023-05-05T05:47:28.838Z,13.98
2023-05-05T05:50:07.388Z,13.99
2023-05-05T05:52:44.872Z,14.24
2023-05-05T05:55:22.083Z,14.62
2023-05-05T05:57:58.800Z,15.18
2023-05-05T06:00:31.573Z,15.65
2023-05-05T06:03:05.310Z,16.09
2023-05-05T06:05:43.101Z,16.59
2023-05-05T06:08:21.678Z,16.96
2023-05-05T06:11:01.336Z,17.39
2023-05-05T06:13:39.424Z,17.77
2023-05-05T06:16:17.947Z,18.43
2023-05-05T06:18:55.969Z,18.79
2023-05-05T06:21:33.116Z,19.15
2023-05-05T06:24:12.334Z,18.95
2023-05-05T06:26:49.866Z,19.11
2023-05-05T06:29:28.430Z,19.56
2023-05-05T06:32:08.695Z,19.74
2023-05-05T06:34:47.605Z,19.25
2023-05-05T06:37:25.485Z,19.39
2023-05-05T06:40:03.213Z,19.37
2023-05-05T06:42:41.712Z,19.59
2023-05-05T06:45:19.387Z,19.63
2023-05-05T06:47:56.941Z,20.12
2023-05-05T06:50:27.273Z,20.18
2023-05-05T06:53:05.604Z,20.27
2023-05-05T06:55:46.937Z,20.58
2023-05-05T06:58:25.663Z,21.18
2023-05-05T07:01:04.886Z,21.37
2023-05-05T07:03:44.461Z,21.26
2023-05-05T07:06:23.327Z,21.22
2023-05-05T07:09:02.290Z,21.11
2023-05-05T07:11:40.809Z,20.83
2023-05-05T07:14:20.097Z,20.25
2023-05-05T07:17:00.424Z,20.20
2023-05-05T07:19:39.065Z,20.67
2023-05-05T07:22:17.320Z,20.33
2023-05-05T07:24:55.358Z,20.38
2023-05-05T07:27:38.650Z,20.03
2023-05-05T07:30:19.047Z,19.73
2023-05-05T07:33:00.973Z,20.23
2023-05-05T07:35:39.096Z,20.41
2023-05-05T07:38:17.523Z,21.05
2023-05-05T07:40:56.288Z,21.23
2023-05-05T07:43:42.328Z,21.15
2023-05-05T07:46:23.428Z,21.44
2023-05-05T07:49:01.389Z,21.31
2023-05-05T07:51:39.584Z,21.14
2023-05-05T07:54:18.803Z,21.28
2023-05-05T07:56:57.863Z,20.71
2023-05-05T07:59:36.644Z,21.34
2023-05-05T08:02:15.617Z,21.74
2023-05-05T08:04:53.213Z,21.48
2023-05-05T08:07:32.200Z,21.70
2023-05-05T08:10:13.931Z,21.76
2023-05-05T08:12:52.221Z,21.75
2023-05-05T08:15:30.481Z,20.74
2023-05-05T08:18:09.918Z,20.38
2023-05-05T08:20:49.669Z,20.21
2023-05-05T08:23:28.021Z,20.49
2023-05-05T08:26:00.256Z,20.51
2023-05-05T08:28:34.308Z,20.52
2023-05-05T08:31:09.877Z,21.09
2023-05-05T08:33:48.890Z,21.06
2023-05-05T08:36:27.710Z,20.50
2023-05-05T08:39:07.679Z,20.89
2023-05-05T08:41:47.162Z,21.47
2023-05-05T08:44:27.469Z,21.31
2023-05-05T08:47:07.621Z,21.25
2023-05-05T08:49:50.171Z,21.22
2023-05-05T08:52:34.883Z,20.41
2023-05-05T08:55:41.549Z,20.71
2023-05-05T08:58:23.285Z,21.10
2023-05-05T09:01:02.287Z,20.85
2023-05-05T09:03:43.544Z,20.49
2023-05-05T09:06:28.706Z,20.32
2023-05-05T09:09:07.799Z,19.68
2023-05-05T09:11:50.892Z,19.55
2023-05-05T09:14:30.547Z,19.25
2023-05-05T09:17:24.570Z,18.99
2023-05-05T09:20:17.856Z,19.00
2023-05-05T09:22:58.580Z,18.95
2023-05-05T09:25:38.768Z,18.84
2023-05-05T09:28:21.567Z,18.83
2023-05-05T09:31:12.531Z,18.32
2023-05-05T09:33:50.782Z,18.66
2023-05-05T09:36:50.892Z,18.78
2023-05-05T09:39:29.324Z,19.45
2023-05-05T09:42:09.799Z,19.75
2023-05-05T09:44:49.090Z,20.14
2023-05-05T09:47:38.290Z,20.01
2023-05-05T09:50:19.376Z,19.37
2023-05-05T09:53:04.754Z,19.72
2023-05-05T09:55:43.412Z,20.03
2023-05-05T09:58:31.980Z,20.51
2023-05-05T10:01:25.767Z,20.72
2023-05-05T10:04:04.634Z,20.24
2023-05-05T10:06:50.797Z,20.45
2023-05-05T10:09:29.899Z,20.13
2023-05-05T10:12:08.286Z,20.20
2023-05-05T10:14:47.894Z,20.42
2023-05-05T10:17:31.074Z,20.36
2023-05-05T10:20:13.772Z,20.04
2023-05-05T10:22:58.016Z,19.74
2023-05-05T10:25:52.450Z,19.22
2023-05-05T10:28:34.706Z,18.54
2023-05-05T10:31:26.329Z,18.67
2023-05-05T10:34:23.280Z,18.83
2023-05-05T10:37:06.771Z,18.83
2023-05-05T10:39:47.716Z,19.00
2023-05-05T10:42:28.371Z,19.18
2023-05-05T10:45:10.913Z,19.27
2023-05-05T10:47:51.632Z,19.14
2023-05-05T10:50:44.310Z,19.12
2023-05-05T10:53:38.948Z,19.25
2023-05-05T10:56:35.258Z,19.24
2023-05-05T10:59:46.955Z,19.15
2023-05-05T11:02:35.055Z,19.01
2023-05-05T11:05:24.709Z,18.83
2023-05-05T11:07:54.907Z,18.28
2023-05-05T11:10:47.948Z,18.18
2023-05-05T11:13:27.071Z,17.94
2023-05-05T11:16:05.984Z,17.91
2023-05-05T11:18:40.134Z,17.93
2023-05-05T11:21:17.773Z,17.99
2023-05-05T11:23:55.030Z,17.88
2023-05-05T11:26:52.232Z,17.66
2023-05-05T11:29:50.874Z,17.90
2023-05-05T11:32:43.148Z,17.97
2023-05-05T11:35:16.008Z,17.95
2023-05-05T11:38:05.476Z,17.95
2023-05-05T11:40:41.138Z,17.84
2023-05-05T11:43:23.442Z,17.82
2023-05-05T11:46:19.148Z,17.82
2023-05-05T11:48:59.650Z,18.06
2023-05-05T11:51:39.423Z,18.04
2023-05-05T11:54:24.520Z,17.99
2023-05-05T11:57:10.968Z,17.63
2023-05-05T12:00:09.529Z,17.27
2023-05-05T12:02:49.078Z,17.40
2023-05-05T12:05:27.835Z,17.60
2023-05-05T12:08:01.368Z,17.35
2023-05-05T12:10:36.218Z,17.23
2023-05-05T12:13:20.368Z,17.21
2023-05-05T12:15:57.067Z,17.26
2023-05-05T12:18:35.708Z,17.32
2023-05-05T12:21:23.654Z,17.01
2023-05-05T12:23:57.021Z,17.22
2023-05-05T12:26:36.213Z,17.41
2023-05-05T12:29:07.481Z,17.53
2023-05-05T12:31:47.088Z,17.54
2023-05-05T12:34:26.766Z,17.46
2023-05-05T12:37:06.277Z,17.45
2023-05-05T12:39:46.212Z,17.33
2023-05-05T12:42:17.534Z,17.13
2023-05-05T12:44:57.931Z,17.30
2023-05-05T12:47:45.849Z,17.54
2023-05-05T12:50:36.601Z,17.50
2023-05-05T12:53:28.036Z,17.46
2023-05-05T12:55:58.972Z,17.15
2023-05-05T12:58:52.646Z,17.00
2023-05-05T13:01:31.725Z,16.82
2023-05-05T13:04:18.617Z,16.72
2023-05-05T13:07:17.063Z,16.73
2023-05-05T13:10:11.162Z,16.97
2023-05-05T13:12:42.611Z,16.98
2023-05-05T13:15:19.151Z,17.07
2023-05-05T13:18:08.434Z,16.97
2023-05-05T13:20:39.132Z,16.83
2023-05-05T13:23:17.821Z,16.78
2023-05-05T13:25:57.606Z,16.51
2023-05-05T13:28:35.907Z,16.41
2023-05-05T13:31:15.449Z,16.20
2023-05-05T13:33:54.859Z,15.94
2023-05-05T13:36:35.221Z,16.04
2023-05-05T13:39:14.120Z,16.12
2023-05-05T13:41:53.238Z,15.86
2023-05-05T13:44:32.098Z,15.66
2023-05-05T13:47:15.044Z,15.66
2023-05-05T13:49:54.249Z,15.79
2023-05-05T13:52:33.611Z,16.17
2023-05-05T13:55:15.004Z,16.42
2023-05-05T13:57:54.469Z,16.69
2023-05-05T14:00:35.134Z,16.88
2023-05-05T14:03:14.800Z,16.87
2023-05-05T14:05:54.338Z,16.58
2023-05-05T14:08:25.345Z,16.43
2023-05-05T14:10:56.315Z,16.61
2023-05-05T14:13:35.398Z,16.61
2023-05-05T14:16:14.235Z,16.44
2023-05-05T14:18:47.851Z,16.22
2023-05-05T14:21:20.254Z,16.05
2023-05-05T14:23:58.343Z,15.93
2023-05-05T14:26:37.241Z,15.91
2023-05-05T14:29:09.011Z,15.82
2023-05-05T14:31:47.614Z,15.56
2023-05-05T14:34:26.385Z,15.23
2023-05-05T14:37:04.481Z,15.10
2023-05-05T14:39:43.397Z,15.17
2023-05-05T14:42:21.992Z,15.32
2023-05-05T14:45:00.596Z,15.47
2023-05-05T14:47:40.804Z,15.69
2023-05-05T14:50:19.512Z,15.86
2023-05-05T14:52:57.852Z,15.98
2023-05-05T14:55:37.076Z,16.04
2023-05-05T14:58:16.000Z,15.94
2023-05-05T15:00:55.292Z,15.79
2023-05-05T15:03:34.454Z,15.74
2023-05-05T15:06:12.484Z,15.70
2023-05-05T15:08:42.600Z,15.64
2023-05-05T15:11:22.471Z,15.65
2023-05-05T15:14:01.154Z,15.66
2023-05-05T15:16:40.847Z,15.53
2023-05-05T15:19:21.482Z,15.50
2023-05-05T15:22:00.747Z,15.59
2023-05-05T15:24:40.089Z,15.58
2023-05-05T15:27:18.623Z,15.66
2023-05-05T15:29:57.476Z,15.60
2023-05-05T15:32:36.698Z,15.61
2023-05-05T15:35:15.339Z,15.59
2023-05-05T15:37:55.398Z,15.55
2023-05-05T15:40:33.900Z,15.49
2023-05-05T15:43:14.057Z,15.40
2023-05-05T15:45:50.267Z,15.36
2023-05-05T15:48:30.030Z,15.32
2023-05-05T15:51:09.774Z,15.36
2023-05-05T15:53:47.961Z,15.24
2023-05-05T15:56:28.659Z,15.08
2023-05-05T15:59:05.248Z,15.04
2023-05-05T16:01:43.153Z,15.01
2023-05-05T16:04:21.692Z,14.86
2023-05-05T16:07:00.385Z,14.76
2023-05-05T16:09:38.726Z,14.72
2023-05-05T16:12:16.684Z,14.68
2023-05-05T16:14:54.556Z,14.59
2023-05-05T16:17:25.003Z,14.54
2023-05-05T16:20:04.783Z,14.55
2023-05-05T16:22:43.269Z,14.57
2023-05-05T16:25:22.733Z,14.58
2023-05-05T16:28:03.834Z,14.59
2023-05-05T16:30:43.670Z,14.57
2023-05-05T16:33:27.537Z,14.45
2023-05-05T16:36:04.327Z,14.38
2023-05-05T16:38:45.811Z,14.26
2023-05-05T16:41:34.699Z,14.32
2023-05-05T16:44:09.469Z,14.34
2023-05-05T16:46:54.513Z,14.29
2023-05-05T16:49:29.011Z,14.31
2023-05-05T16:52:05.693Z,14.32
2023-05-05T16:54:44.524Z,14.21
2023-05-05T16:57:26.696Z,14.16
2023-05-05T17:00:05.249Z,14.03
2023-05-05T17:02:44.322Z,13.91
2023-05-05T17:05:23.005Z,13.77
2023-05-05T17:07:55.500Z,13.72
2023-05-05T17:10:33.858Z,13.69
2023-05-05T17:13:15.717Z,13.62
2023-05-05T17:15:54.585Z,13.51
2023-05-05T17:18:26.520Z,13.42
2023-05-05T17:21:07.108Z,13.27
2023-05-05T17:23:46.306Z,13.28
2023-05-05T17:26:24.865Z,13.23
2023-05-05T17:28:55.023Z,13.11
2023-05-05T17:31:26.367Z,13.02
2023-05-05T17:34:05.285Z,12.94
2023-05-05T17:36:44.549Z,12.87
2023-05-05T17:39:23.524Z,12.85
2023-05-05T17:41:54.673Z,12.83
2023-05-05T17:44:33.336Z,12.81
2023-05-05T17:47:13.824Z,12.78
2023-05-05T17:49:54.243Z,12.69
2023-05-05T17:52:33.730Z,12.59
2023-05-05T17:55:14.552Z,12.53
2023-05-05T17:57:53.202Z,12.48
2023-05-05T18:00:31.668Z,12.45
2023-05-05T18:03:12.346Z,12.35
2023-05-05T18:05:52.195Z,12.26
2023-05-05T18:08:22.802Z,12.23
2023-05-05T18:11:01.235Z,12.19
2023-05-05T18:13:32.135Z,12.16
2023-05-05T18:16:07.548Z,12.11
2023-05-05T18:18:45.546Z,12.05
2023-05-05T18:21:24.504Z,11.99
2023-05-05T18:24:15.584Z,11.95
2023-05-05T18:27:01.183Z,11.89
2023-05-05T18:29:40.189Z,11.83
2023-05-05T18:32:13.057Z,11.79
2023-05-05T18:34:47.615Z,11.72
2023-05-05T18:37:26.076Z,11.67
2023-05-05T18:40:05.135Z,11.62
2023-05-05T18:42:44.055Z,11.57
2023-05-05T18:45:23.638Z,11.51
2023-05-05T18:48:01.793Z,11.45
2023-05-05T18:50:41.121Z,11.37
2023-05-05T18:53:21.229Z,11.33
2023-05-05T18:55:59.546Z,11.29
2023-05-05T18:58:38.485Z,11.24
2023-05-05T19:01:17.306Z,11.17
2023-05-05T19:03:56.857Z,11.16
2023-05-05T19:06:35.510Z,11.12
2023-05-05T19:09:14.990Z,11.08
2023-05-05T19:11:53.489Z,11.02
2023-05-05T19:14:32.262Z,11.04
2023-05-05T19:17:11.781Z,11.04
2023-05-05T19:19:49.754Z,11.03
2023-05-05T19:22:28.148Z,11.01
2023-05-05T19:25:06.652Z,10.97
2023-05-05T19:27:46.086Z,10.94
2023-05-05T19:30:24.342Z,10.91
2023-05-05T19:33:02.711Z,10.85
2023-05-05T19:35:37.792Z,10.93
2023-05-05T19:38:12.613Z,10.93
2023-05-05T19:40:46.956Z,10.90
2023-05-05T19:43:25.052Z,10.89
2023-05-05T19:46:02.690Z,10.85
2023-05-05T19:48:41.112Z,10.84
2023-05-05T19:51:20.254Z,10.89
2023-05-05T19:53:59.894Z,10.91
2023-05-05T19:56:39.253Z,10.90
2023-05-05T19:59:18.107Z,10.89
2023-05-05T20:01:56.327Z,10.83
2023-05-05T20:04:34.374Z,10.81
2023-05-05T20:07:13.192Z,10.82
2023-05-05T20:09:51.566Z,10.84
2023-05-05T20:12:29.286Z,10.80
2023-05-05T20:15:07.930Z,10.80
2023-05-05T20:17:46.986Z,10.78
2023-05-05T20:20:25.729Z,10.74
2023-05-05T20:23:03.711Z,10.73
2023-05-05T20:25:35.552Z,10.70
2023-05-05T20:28:11.245Z,10.67
2023-05-05T20:30:47.124Z,10.67
2023-05-05T20:33:26.190Z,10.68
2023-05-05T20:36:04.600Z,10.66
2023-05-05T20:38:42.484Z,10.65
2023-05-05T20:41:20.951Z,10.65
2023-05-05T20:43:59.202Z,10.62
2023-05-05T20:46:34.629Z,10.56
2023-05-05T20:49:13.655Z,10.47
2023-05-05T20:51:52.200Z,10.54
2023-05-05T20:54:39.892Z,10.51
2023-05-05T20:57:17.924Z,10.49
2023-05-05T20:59:57.023Z,10.44
2023-05-05T21:02:34.667Z,10.40
2023-05-05T21:05:14.265Z,10.40
2023-05-05T21:07:52.142Z,10.35
2023-05-05T21:10:22.723Z,10.46
2023-05-05T21:12:53.454Z,10.44
2023-05-05T21:15:32.657Z,10.38
2023-05-05T21:18:12.442Z,10.35
2023-05-05T21:20:50.704Z,10.34
2023-05-05T21:23:28.586Z,10.30
2023-05-05T21:26:07.361Z,10.27
2023-05-05T21:28:46.616Z,10.25
2023-05-05T21:31:24.430Z,10.25
2023-05-05T21:33:54.578Z,10.20
2023-05-05T21:36:34.086Z,10.15
2023-05-05T21:39:13.841Z,10.11
2023-05-05T21:41:51.591Z,10.15
2023-05-05T21:44:29.510Z,10.18
2023-05-05T21:47:07.654Z,10.19
2023-05-05T21:49:44.973Z,10.22
2023-05-05T21:52:14.995Z,10.22
2023-05-05T21:54:52.874Z,10.19
2023-05-05T21:57:31.441Z,10.16
2023-05-05T22:00:10.305Z,10.10
2023-05-05T22:02:48.814Z,10.02
2023-05-05T22:05:26.658Z,10.05
2023-05-05T22:08:05.212Z,10.03
2023-05-05T22:10:43.062Z,9.98
2023-05-05T22:13:21.459Z,9.99
2023-05-05T22:15:59.117Z,9.99
2023-05-05T22:18:37.744Z,9.97
2023-05-05T22:21:15.772Z,9.91
2023-05-05T22:23:54.425Z,9.85
2023-05-05T22:26:32.891Z,9.81
2023-05-05T22:29:12.001Z,9.78
2023-05-05T22:31:47.385Z,9.72
2023-05-05T22:34:26.273Z,9.66
2023-05-05T22:37:05.159Z,9.63
2023-05-05T22:39:43.920Z,9.60
2023-05-05T22:42:23.896Z,9.61
2023-05-05T22:45:01.944Z,9.60
2023-05-05T22:47:33.538Z,9.53
2023-05-05T22:50:10.407Z,9.48
2023-05-05T22:52:48.895Z,9.42
2023-05-05T22:55:28.836Z,9.39
2023-05-05T22:58:07.437Z,9.32
2023-05-05T23:00:45.360Z,9.28
2023-05-05T23:03:24.269Z,9.24
2023-05-05T23:06:02.687Z,9.19
2023-05-05T23:08:42.032Z,9.15
2023-05-05T23:11:20.848Z,9.13
2023-05-05T23:13:58.984Z,9.11
2023-05-05T23:16:37.099Z,9.07
2023-05-05T23:19:16.149Z,9.01
2023-05-05T23:21:54.661Z,8.99
2023-05-05T23:24:25.377Z,8.96
2023-05-05T23:27:05.430Z,8.94
2023-05-05T23:29:44.727Z,8.89
2023-05-05T23:32:21.082Z,8.85
2023-05-05T23:34:52.242Z,8.75
2023-05-05T23:37:31.278Z,8.72
2023-05-05T23:40:11.129Z,8.67
2023-05-05T23:42:49.852Z,8.66
2023-05-05T23:45:30.300Z,8.61
2023-05-05T23:48:10.172Z,8.55
2023-05-05T23:50:48.107Z,8.50
2023-05-05T23:53:26.057Z,8.44
2023-05-05T23:56:04.962Z,8.40
2023-05-05T23:58:43.737Z,8.31
